sensor_id;sensor_type;location;lat;lon;timestamp;P1;durP1;ratioP1;P2;durP2;ratioP2
40649;SDS011;26342;42.826;23.992;2023-04-03T00:01:23;8.35;;;1.40;;
40649;SDS011;26342;42.826;23.992;2023-04-03T00:03:49;0.73;;;0.73;;
40649;SDS011;26342;42.826;23.992;2023-04-03T00:06:17;1.30;;;1.20;;
40649;SDS011;26342;42.826;23.992;2023-04-03T00:08:43;1.17;;;0.63;;
40649;SDS011;26342;42.826;23.992;2023-04-03T00:11:08;1.33;;;1.20;;
40649;SDS011;26342;42.826;23.992;2023-04-03T00:13:35;3.17;;;1.02;;
40649;SDS011;26342;42.826;23.992;2023-04-03T00:16:02;0.57;;;0.57;;
40649;SDS011;26342;42.826;23.992;2023-04-03T00:18:28;0.95;;;0.82;;
40649;SDS011;26342;42.826;23.992;2023-04-03T00:20:54;1.38;;;1.27;;
40649;SDS011;26342;42.826;23.992;2023-04-03T00:23:48;2.33;;;1.33;;
40649;SDS011;26342;42.826;23.992;2023-04-03T00:26:13;1.67;;;1.58;;
40649;SDS011;26342;42.826;23.992;2023-04-03T00:28:38;1.73;;;1.63;;
40649;SDS011;26342;42.826;23.992;2023-04-03T00:31:04;2.13;;;1.00;;
40649;SDS011;26342;42.826;23.992;2023-04-03T00:33:29;1.55;;;1.45;;
40649;SDS011;26342;42.826;23.992;2023-04-03T00:35:55;1.90;;;1.10;;
40649;SDS011;26342;42.826;23.992;2023-04-03T00:38:20;4.25;;;1.38;;
40649;SDS011;26342;42.826;23.992;2023-04-03T00:41:12;0.52;;;0.43;;
40649;SDS011;26342;42.826;23.992;2023-04-03T00:43:37;0.75;;;0.52;;
40649;SDS011;26342;42.826;23.992;2023-04-03T00:46:12;1.20;;;1.10;;
40649;SDS011;26342;42.826;23.992;2023-04-03T00:48:46;0.52;;;0.52;;
40649;SDS011;26342;42.826;23.992;2023-04-03T00:51:13;1.75;;;0.90;;
40649;SDS011;26342;42.826;23.992;2023-04-03T00:53:47;1.38;;;0.88;;
40649;SDS011;26342;42.826;23.992;2023-04-03T00:56:28;0.40;;;0.40;;
40649;SDS011;26342;42.826;23.992;2023-04-03T00:59:13;0.30;;;0.30;;
40649;SDS011;26342;42.826;23.992;2023-04-03T01:01:43;1.42;;;0.77;;
40649;SDS011;26342;42.826;23.992;2023-04-03T01:04:25;0.20;;;0.20;;
40649;SDS011;26342;42.826;23.992;2023-04-03T01:07:00;1.65;;;0.63;;
40649;SDS011;26342;42.826;23.992;2023-04-03T01:09:29;1.00;;;0.90;;
40649;SDS011;26342;42.826;23.992;2023-04-03T01:12:12;0.43;;;0.43;;
40649;SDS011;26342;42.826;23.992;2023-04-03T01:14:46;2.45;;;2.22;;
40649;SDS011;26342;42.826;23.992;2023-04-03T01:17:24;2.20;;;1.92;;
40649;SDS011;26342;42.826;23.992;2023-04-03T01:25:57;2.40;;;2.15;;
40649;SDS011;26342;42.826;23.992;2023-04-03T01:28:41;4.82;;;2.05;;
40649;SDS011;26342;42.826;23.992;2023-04-03T01:31:28;1.23;;;1.17;;
40649;SDS011;26342;42.826;23.992;2023-04-03T01:33:56;0.40;;;0.40;;
40649;SDS011;26342;42.826;23.992;2023-04-03T01:36:36;2.90;;;1.23;;
40649;SDS011;26342;42.826;23.992;2023-04-03T01:39:02;1.48;;;1.35;;
40649;SDS011;26342;42.826;23.992;2023-04-03T01:41:27;3.63;;;1.40;;
40649;SDS011;26342;42.826;23.992;2023-04-03T01:43:53;4.70;;;1.00;;
40649;SDS011;26342;42.826;23.992;2023-04-03T01:46:19;5.32;;;1.35;;
40649;SDS011;26342;42.826;23.992;2023-04-03T01:48:45;5.10;;;1.38;;
40649;SDS011;26342;42.826;23.992;2023-04-03T01:51:10;1.00;;;0.63;;
40649;SDS011;26342;42.826;23.992;2023-04-03T01:54:01;0.70;;;0.47;;
40649;SDS011;26342;42.826;23.992;2023-04-03T01:56:27;3.45;;;1.70;;
40649;SDS011;26342;42.826;23.992;2023-04-03T01:58:52;2.03;;;1.30;;
40649;SDS011;26342;42.826;23.992;2023-04-03T02:01:18;1.25;;;1.15;;
40649;SDS011;26342;42.826;23.992;2023-04-03T02:03:44;1.10;;;1.02;;
40649;SDS011;26342;42.826;23.992;2023-04-03T02:06:09;2.78;;;2.58;;
40649;SDS011;26342;42.826;23.992;2023-04-03T02:08:35;1.67;;;1.05;;
40649;SDS011;26342;42.826;23.992;2023-04-03T02:11:00;5.22;;;2.67;;
40649;SDS011;26342;42.826;23.992;2023-04-03T02:13:26;0.43;;;0.43;;
40649;SDS011;26342;42.826;23.992;2023-04-03T02:16:10;0.65;;;0.52;;
40649;SDS011;26342;42.826;23.992;2023-04-03T02:18:37;0.70;;;0.63;;
40649;SDS011;26342;42.826;23.992;2023-04-03T02:21:03;0.20;;;0.20;;
40649;SDS011;26342;42.826;23.992;2023-04-03T02:23:29;0.60;;;0.60;;
40649;SDS011;26342;42.826;23.992;2023-04-03T02:26:02;0.57;;;0.57;;
40649;SDS011;26342;42.826;23.992;2023-04-03T02:28:35;1.40;;;1.17;;
40649;SDS011;26342;42.826;23.992;2023-04-03T02:31:01;0.50;;;0.50;;
40649;SDS011;26342;42.826;23.992;2023-04-03T02:33:28;1.40;;;0.90;;
40649;SDS011;26342;42.826;23.992;2023-04-03T02:35:57;0.50;;;0.50;;
40649;SDS011;26342;42.826;23.992;2023-04-03T02:38:24;0.28;;;0.28;;
40649;SDS011;26342;42.826;23.992;2023-04-03T02:40:50;0.52;;;0.52;;
40649;SDS011;26342;42.826;23.992;2023-04-03T02:43:26;0.32;;;0.25;;
40649;SDS011;26342;42.826;23.992;2023-04-03T02:45:52;1.08;;;0.98;;
40649;SDS011;26342;42.826;23.992;2023-04-03T02:48:17;0.50;;;0.50;;
40649;SDS011;26342;42.826;23.992;2023-04-03T02:50:43;0.55;;;0.55;;
40649;SDS011;26342;42.826;23.992;2023-04-03T02:53:08;0.82;;;0.43;;
40649;SDS011;26342;42.826;23.992;2023-04-03T02:55:38;0.63;;;0.63;;
40649;SDS011;26342;42.826;23.992;2023-04-03T02:58:03;0.68;;;0.47;;
40649;SDS011;26342;42.826;23.992;2023-04-03T03:00:29;0.85;;;0.85;;
40649;SDS011;26342;42.826;23.992;2023-04-03T03:02:55;7.20;;;1.05;;
40649;SDS011;26342;42.826;23.992;2023-04-03T03:05:20;1.15;;;0.98;;
40649;SDS011;26342;42.826;23.992;2023-04-03T03:07:45;0.52;;;0.52;;
40649;SDS011;26342;42.826;23.992;2023-04-03T03:10:11;3.90;;;1.10;;
40649;SDS011;26342;42.826;23.992;2023-04-03T03:12:36;0.57;;;0.57;;
40649;SDS011;26342;42.826;23.992;2023-04-03T03:15:02;2.72;;;1.27;;
40649;SDS011;26342;42.826;23.992;2023-04-03T03:17:27;1.00;;;0.77;;
40649;SDS011;26342;42.826;23.992;2023-04-03T03:19:52;0.57;;;0.57;;
40649;SDS011;26342;42.826;23.992;2023-04-03T03:22:18;0.35;;;0.20;;
40649;SDS011;26342;42.826;23.992;2023-04-03T03:24:43;0.38;;;0.38;;
40649;SDS011;26342;42.826;23.992;2023-04-03T03:27:09;0.10;;;0.10;;
40649;SDS011;26342;42.826;23.992;2023-04-03T03:29:35;0.63;;;0.63;;
40649;SDS011;26342;42.826;23.992;2023-04-03T03:32:01;0.88;;;0.85;;
40649;SDS011;26342;42.826;23.992;2023-04-03T03:34:27;1.35;;;1.25;;
40649;SDS011;26342;42.826;23.992;2023-04-03T03:36:52;0.73;;;0.68;;
40649;SDS011;26342;42.826;23.992;2023-04-03T03:39:18;0.45;;;0.45;;
40649;SDS011;26342;42.826;23.992;2023-04-03T03:41:44;0.20;;;0.20;;
40649;SDS011;26342;42.826;23.992;2023-04-03T03:44:09;0.35;;;0.35;;
40649;SDS011;26342;42.826;23.992;2023-04-03T03:46:35;0.50;;;0.50;;
40649;SDS011;26342;42.826;23.992;2023-04-03T03:49:00;0.52;;;0.52;;
40649;SDS011;26342;42.826;23.992;2023-04-03T03:51:25;1.75;;;0.65;;
40649;SDS011;26342;42.826;23.992;2023-04-03T03:53:51;0.38;;;0.38;;
40649;SDS011;26342;42.826;23.992;2023-04-03T03:56:32;0.28;;;0.28;;
40649;SDS011;26342;42.826;23.992;2023-04-03T03:58:58;1.27;;;1.08;;
40649;SDS011;26342;42.826;23.992;2023-04-03T04:01:23;0.70;;;0.60;;
40649;SDS011;26342;42.826;23.992;2023-04-03T04:03:49;2.17;;;1.05;;
40649;SDS011;26342;42.826;23.992;2023-04-03T04:06:15;3.55;;;2.28;;
40649;SDS011;26342;42.826;23.992;2023-04-03T04:08:41;5.30;;;3.13;;
40649;SDS011;26342;42.826;23.992;2023-04-03T04:11:06;2.95;;;2.00;;
40649;SDS011;26342;42.826;23.992;2023-04-03T04:13:33;1.83;;;1.50;;
40649;SDS011;26342;42.826;23.992;2023-04-03T04:16:05;2.38;;;1.02;;
40649;SDS011;26342;42.826;23.992;2023-04-03T04:18:30;4.53;;;2.28;;
40649;SDS011;26342;42.826;23.992;2023-04-03T04:20:56;2.72;;;1.55;;
40649;SDS011;26342;42.826;23.992;2023-04-03T04:23:21;0.40;;;0.38;;
40649;SDS011;26342;42.826;23.992;2023-04-03T04:25:47;7.90;;;3.95;;
40649;SDS011;26342;42.826;23.992;2023-04-03T04:28:14;5.95;;;3.28;;
40649;SDS011;26342;42.826;23.992;2023-04-03T04:30:40;5.43;;;3.92;;
40649;SDS011;26342;42.826;23.992;2023-04-03T04:33:05;3.00;;;1.60;;
40649;SDS011;26342;42.826;23.992;2023-04-03T04:35:31;5.63;;;3.15;;
40649;SDS011;26342;42.826;23.992;2023-04-03T04:37:57;6.00;;;4.05;;
40649;SDS011;26342;42.826;23.992;2023-04-03T04:40:23;4.85;;;3.45;;
40649;SDS011;26342;42.826;23.992;2023-04-03T04:42:48;5.93;;;3.35;;
40649;SDS011;26342;42.826;23.992;2023-04-03T04:45:13;4.22;;;2.90;;
40649;SDS011;26342;42.826;23.992;2023-04-03T04:47:51;2.22;;;2.05;;
40649;SDS011;26342;42.826;23.992;2023-04-03T04:50:21;2.58;;;2.38;;
40649;SDS011;26342;42.826;23.992;2023-04-03T04:52:47;3.78;;;3.17;;
40649;SDS011;26342;42.826;23.992;2023-04-03T04:55:12;4.35;;;3.17;;
40649;SDS011;26342;42.826;23.992;2023-04-03T04:57:38;3.65;;;3.33;;
40649;SDS011;26342;42.826;23.992;2023-04-03T05:00:04;6.90;;;3.10;;
40649;SDS011;26342;42.826;23.992;2023-04-03T05:02:33;3.42;;;2.42;;
40649;SDS011;26342;42.826;23.992;2023-04-03T05:04:59;4.32;;;2.95;;
40649;SDS011;26342;42.826;23.992;2023-04-03T05:07:24;4.63;;;4.00;;
40649;SDS011;26342;42.826;23.992;2023-04-03T05:09:55;5.25;;;3.83;;
40649;SDS011;26342;42.826;23.992;2023-04-03T05:12:20;2.60;;;1.92;;
40649;SDS011;26342;42.826;23.992;2023-04-03T05:14:47;7.10;;;4.38;;
40649;SDS011;26342;42.826;23.992;2023-04-03T05:17:12;2.78;;;2.15;;
40649;SDS011;26342;42.826;23.992;2023-04-03T05:19:38;4.68;;;3.72;;
40649;SDS011;26342;42.826;23.992;2023-04-03T05:22:03;6.97;;;3.20;;
40649;SDS011;26342;42.826;23.992;2023-04-03T05:24:29;4.00;;;3.53;;
40649;SDS011;26342;42.826;23.992;2023-04-03T05:26:54;4.28;;;3.83;;
40649;SDS011;26342;42.826;23.992;2023-04-03T05:29:20;8.82;;;4.38;;
40649;SDS011;26342;42.826;23.992;2023-04-03T05:31:48;7.93;;;4.07;;
40649;SDS011;26342;42.826;23.992;2023-04-03T05:34:15;10.23;;;5.35;;
40649;SDS011;26342;42.826;23.992;2023-04-03T05:36:45;4.68;;;3.28;;
40649;SDS011;26342;42.826;23.992;2023-04-03T05:39:17;3.97;;;2.90;;
40649;SDS011;26342;42.826;23.992;2023-04-03T05:41:42;3.25;;;2.95;;
40649;SDS011;26342;42.826;23.992;2023-04-03T05:44:08;7.43;;;3.83;;
40649;SDS011;26342;42.826;23.992;2023-04-03T05:47:02;8.07;;;4.50;;
40649;SDS011;26342;42.826;23.992;2023-04-03T05:49:28;6.70;;;4.97;;
40649;SDS011;26342;42.826;23.992;2023-04-03T05:51:55;7.82;;;5.43;;
40649;SDS011;26342;42.826;23.992;2023-04-03T05:54:25;11.32;;;4.13;;
40649;SDS011;26342;42.826;23.992;2023-04-03T05:56:52;5.38;;;4.88;;
40649;SDS011;26342;42.826;23.992;2023-04-03T05:59:18;9.38;;;4.97;;
40649;SDS011;26342;42.826;23.992;2023-04-03T06:02:24;9.75;;;5.82;;
40649;SDS011;26342;42.826;23.992;2023-04-03T06:04:50;10.75;;;7.32;;
40649;SDS011;26342;42.826;23.992;2023-04-03T06:07:17;11.50;;;6.18;;
40649;SDS011;26342;42.826;23.992;2023-04-03T06:09:46;6.57;;;5.32;;
40649;SDS011;26342;42.826;23.992;2023-04-03T06:12:12;10.23;;;6.57;;
40649;SDS011;26342;42.826;23.992;2023-04-03T06:14:38;6.10;;;4.05;;
40649;SDS011;26342;42.826;23.992;2023-04-03T06:17:35;7.35;;;5.35;;
40649;SDS011;26342;42.826;23.992;2023-04-03T06:20:02;7.15;;;4.82;;
40649;SDS011;26342;42.826;23.992;2023-04-03T06:22:28;5.90;;;4.00;;
40649;SDS011;26342;42.826;23.992;2023-04-03T06:25:00;5.13;;;3.83;;
40649;SDS011;26342;42.826;23.992;2023-04-03T06:27:32;4.57;;;2.65;;
40649;SDS011;26342;42.826;23.992;2023-04-03T06:29:57;3.67;;;2.75;;
40649;SDS011;26342;42.826;23.992;2023-04-03T06:32:25;3.83;;;2.40;;
40649;SDS011;26342;42.826;23.992;2023-04-03T06:35:01;7.00;;;2.60;;
40649;SDS011;26342;42.826;23.992;2023-04-03T06:37:26;5.47;;;3.40;;
40649;SDS011;26342;42.826;23.992;2023-04-03T06:39:54;8.10;;;3.95;;
40649;SDS011;26342;42.826;23.992;2023-04-03T06:43:00;4.63;;;3.42;;
40649;SDS011;26342;42.826;23.992;2023-04-03T06:45:32;10.57;;;2.33;;
40649;SDS011;26342;42.826;23.992;2023-04-03T06:47:57;9.38;;;3.80;;
40649;SDS011;26342;42.826;23.992;2023-04-03T06:50:23;5.65;;;3.75;;
40649;SDS011;26342;42.826;23.992;2023-04-03T06:52:48;6.20;;;2.28;;
40649;SDS011;26342;42.826;23.992;2023-04-03T06:55:13;5.82;;;4.03;;
40649;SDS011;26342;42.826;23.992;2023-04-03T06:57:39;5.10;;;2.75;;
40649;SDS011;26342;42.826;23.992;2023-04-03T07:00:05;5.78;;;1.63;;
40649;SDS011;26342;42.826;23.992;2023-04-03T07:02:32;3.88;;;2.47;;
40649;SDS011;26342;42.826;23.992;2023-04-03T07:04:58;1.92;;;1.58;;
40649;SDS011;26342;42.826;23.992;2023-04-03T07:07:23;2.60;;;2.40;;
40649;SDS011;26342;42.826;23.992;2023-04-03T07:09:49;5.28;;;3.88;;
40649;SDS011;26342;42.826;23.992;2023-04-03T07:12:14;2.20;;;2.00;;
40649;SDS011;26342;42.826;23.992;2023-04-03T07:14:41;3.13;;;1.98;;
40649;SDS011;26342;42.826;23.992;2023-04-03T07:17:06;2.90;;;2.17;;
40649;SDS011;26342;42.826;23.992;2023-04-03T07:19:31;0.85;;;0.75;;
40649;SDS011;26342;42.826;23.992;2023-04-03T07:21:57;3.30;;;1.75;;
40649;SDS011;26342;42.826;23.992;2023-04-03T07:24:24;1.63;;;1.52;;
40649;SDS011;26342;42.826;23.992;2023-04-03T07:26:50;2.55;;;1.67;;
40649;SDS011;26342;42.826;23.992;2023-04-03T07:29:19;6.78;;;3.38;;
40649;SDS011;26342;42.826;23.992;2023-04-03T07:32:01;1.55;;;1.45;;
40649;SDS011;26342;42.826;23.992;2023-04-03T07:34:27;2.03;;;1.23;;
40649;SDS011;26342;42.826;23.992;2023-04-03T07:36:53;1.10;;;1.08;;
40649;SDS011;26342;42.826;23.992;2023-04-03T07:39:18;2.72;;;1.75;;
40649;SDS011;26342;42.826;23.992;2023-04-03T07:41:44;4.55;;;2.30;;
40649;SDS011;26342;42.826;23.992;2023-04-03T07:44:09;34.80;;;2.22;;
40649;SDS011;26342;42.826;23.992;2023-04-03T07:46:35;5.95;;;2.97;;
40649;SDS011;26342;42.826;23.992;2023-04-03T07:49:01;11.63;;;4.20;;
40649;SDS011;26342;42.826;23.992;2023-04-03T07:51:27;6.80;;;3.13;;
40649;SDS011;26342;42.826;23.992;2023-04-03T07:53:53;6.65;;;2.00;;
40649;SDS011;26342;42.826;23.992;2023-04-03T07:56:19;4.60;;;2.40;;
40649;SDS011;26342;42.826;23.992;2023-04-03T07:58:45;5.38;;;3.67;;
40649;SDS011;26342;42.826;23.992;2023-04-03T08:01:11;8.13;;;4.72;;
40649;SDS011;26342;42.826;23.992;2023-04-03T08:03:36;10.70;;;6.35;;
40649;SDS011;26342;42.826;23.992;2023-04-03T08:06:04;4.22;;;3.55;;
40649;SDS011;26342;42.826;23.992;2023-04-03T08:08:32;5.03;;;3.15;;
40649;SDS011;26342;42.826;23.992;2023-04-03T08:10:58;2.28;;;2.08;;
40649;SDS011;26342;42.826;23.992;2023-04-03T08:13:25;6.43;;;4.00;;
40649;SDS011;26342;42.826;23.992;2023-04-03T08:15:50;2.17;;;1.30;;
40649;SDS011;26342;42.826;23.992;2023-04-03T08:18:22;1.83;;;1.25;;
40649;SDS011;26342;42.826;23.992;2023-04-03T08:20:49;0.50;;;0.50;;
40649;SDS011;26342;42.826;23.992;2023-04-03T08:23:16;1.70;;;1.35;;
40649;SDS011;26342;42.826;23.992;2023-04-03T08:26:23;2.08;;;1.52;;
40649;SDS011;26342;42.826;23.992;2023-04-03T08:28:57;0.40;;;0.40;;
40649;SDS011;26342;42.826;23.992;2023-04-03T08:31:23;2.00;;;1.25;;
40649;SDS011;26342;42.826;23.992;2023-04-03T08:33:54;1.35;;;1.17;;
40649;SDS011;26342;42.826;23.992;2023-04-03T08:36:28;1.73;;;1.27;;
40649;SDS011;26342;42.826;23.992;2023-04-03T08:38:54;1.10;;;0.90;;
40649;SDS011;26342;42.826;23.992;2023-04-03T08:41:37;2.67;;;1.02;;
40649;SDS011;26342;42.826;23.992;2023-04-03T08:44:11;3.38;;;1.70;;
40649;SDS011;26342;42.826;23.992;2023-04-03T08:47:02;0.75;;;0.63;;
40649;SDS011;26342;42.826;23.992;2023-04-03T08:50:02;0.57;;;0.47;;
40649;SDS011;26342;42.826;23.992;2023-04-03T08:52:47;1.08;;;0.52;;
40649;SDS011;26342;42.826;23.992;2023-04-03T08:58:28;0.47;;;0.47;;
40649;SDS011;26342;42.826;23.992;2023-04-03T09:00:58;0.55;;;0.55;;
40649;SDS011;26342;42.826;23.992;2023-04-03T09:03:29;0.43;;;0.30;;
40649;SDS011;26342;42.826;23.992;2023-04-03T09:06:00;0.43;;;0.43;;
40649;SDS011;26342;42.826;23.992;2023-04-03T09:08:30;0.32;;;0.30;;
40649;SDS011;26342;42.826;23.992;2023-04-03T09:11:25;0.05;;;0.05;;
40649;SDS011;26342;42.826;23.992;2023-04-03T09:19:24;0.10;;;0.10;;
40649;SDS011;26342;42.826;23.992;2023-04-03T09:21:56;0.30;;;0.28;;
40649;SDS011;26342;42.826;23.992;2023-04-03T09:24:22;0.68;;;0.30;;
40649;SDS011;26342;42.826;23.992;2023-04-03T09:26:59;0.65;;;0.55;;
40649;SDS011;26342;42.826;23.992;2023-04-03T09:29:30;0.38;;;0.38;;
40649;SDS011;26342;42.826;23.992;2023-04-03T09:32:00;0.30;;;0.30;;
40649;SDS011;26342;42.826;23.992;2023-04-03T09:34:31;1.05;;;0.95;;
40649;SDS011;26342;42.826;23.992;2023-04-03T09:37:00;0.93;;;0.70;;
40649;SDS011;26342;42.826;23.992;2023-04-03T09:39:52;0.32;;;0.30;;
40649;SDS011;26342;42.826;23.992;2023-04-03T09:42:20;1.05;;;0.68;;
40649;SDS011;26342;42.826;23.992;2023-04-03T09:44:55;0.93;;;0.73;;
40649;SDS011;26342;42.826;23.992;2023-04-03T09:47:26;0.30;;;0.30;;
40649;SDS011;26342;42.826;23.992;2023-04-03T09:52:39;0.90;;;0.57;;
40649;SDS011;26342;42.826;23.992;2023-04-03T09:57:55;0.10;;;0.10;;
40649;SDS011;26342;42.826;23.992;2023-04-03T10:00:25;0.22;;;0.20;;
40649;SDS011;26342;42.826;23.992;2023-04-03T10:02:56;0.13;;;0.13;;
40649;SDS011;26342;42.826;23.992;2023-04-03T10:08:08;0.75;;;0.20;;
40649;SDS011;26342;42.826;23.992;2023-04-03T10:10:36;0.50;;;0.40;;
40649;SDS011;26342;42.826;23.992;2023-04-03T10:15:47;4.32;;;1.15;;
40649;SDS011;26342;42.826;23.992;2023-04-03T10:35:01;1.38;;;0.82;;
40649;SDS011;26342;42.826;23.992;2023-04-03T10:43:25;1.85;;;0.68;;
40649;SDS011;26342;42.826;23.992;2023-04-03T10:52:07;1.42;;;1.30;;
40649;SDS011;26342;42.826;23.992;2023-04-03T10:54:40;0.40;;;0.40;;
40649;SDS011;26342;42.826;23.992;2023-04-03T10:57:27;1.42;;;0.90;;
40649;SDS011;26342;42.826;23.992;2023-04-03T11:00:04;0.82;;;0.45;;
40649;SDS011;26342;42.826;23.992;2023-04-03T11:02:54;1.48;;;1.10;;
40649;SDS011;26342;42.826;23.992;2023-04-03T11:07:57;3.28;;;1.45;;
40649;SDS011;26342;42.826;23.992;2023-04-03T11:10:37;1.30;;;0.73;;
40649;SDS011;26342;42.826;23.992;2023-04-03T11:13:17;1.10;;;0.40;;
40649;SDS011;26342;42.826;23.992;2023-04-03T11:16:02;1.27;;;0.98;;
40649;SDS011;26342;42.826;23.992;2023-04-03T11:18:40;0.10;;;0.10;;
40649;SDS011;26342;42.826;23.992;2023-04-03T11:24:02;0.47;;;0.47;;
40649;SDS011;26342;42.826;23.992;2023-04-03T11:26:35;3.63;;;1.52;;
40649;SDS011;26342;42.826;23.992;2023-04-03T11:29:09;0.80;;;0.63;;
40649;SDS011;26342;42.826;23.992;2023-04-03T11:34:37;0.73;;;0.60;;
40649;SDS011;26342;42.826;23.992;2023-04-03T11:37:13;13.68;;;6.72;;
40649;SDS011;26342;42.826;23.992;2023-04-03T11:39:54;8.45;;;3.28;;
40649;SDS011;26342;42.826;23.992;2023-04-03T11:42:28;0.77;;;0.50;;
40649;SDS011;26342;42.826;23.992;2023-04-03T11:47:57;2.30;;;2.20;;
40649;SDS011;26342;42.826;23.992;2023-04-03T12:16:20;2.05;;;1.25;;
40649;SDS011;26342;42.826;23.992;2023-04-03T12:29:24;2.63;;;2.17;;
40649;SDS011;26342;42.826;23.992;2023-04-03T12:37:20;1.98;;;1.75;;
40649;SDS011;26342;42.826;23.992;2023-04-03T12:51:09;0.60;;;0.60;;
40649;SDS011;26342;42.826;23.992;2023-04-03T12:53:46;0.20;;;0.17;;
40649;SDS011;26342;42.826;23.992;2023-04-03T12:56:19;0.75;;;0.30;;
40649;SDS011;26342;42.826;23.992;2023-04-03T12:58:46;0.47;;;0.45;;
40649;SDS011;26342;42.826;23.992;2023-04-03T13:01:18;0.17;;;0.17;;
40649;SDS011;26342;42.826;23.992;2023-04-03T13:03:48;0.25;;;0.25;;
40649;SDS011;26342;42.826;23.992;2023-04-03T13:06:19;0.88;;;0.50;;
40649;SDS011;26342;42.826;23.992;2023-04-03T13:08:54;0.32;;;0.28;;
40649;SDS011;26342;42.826;23.992;2023-04-03T13:11:25;3.00;;;1.23;;
40649;SDS011;26342;42.826;23.992;2023-04-03T13:14:00;0.70;;;0.70;;
40649;SDS011;26342;42.826;23.992;2023-04-03T13:16:31;0.45;;;0.43;;
40649;SDS011;26342;42.826;23.992;2023-04-03T13:18:58;0.88;;;0.65;;
40649;SDS011;26342;42.826;23.992;2023-04-03T13:21:25;18.42;;;4.65;;
40649;SDS011;26342;42.826;23.992;2023-04-03T13:23:57;3.33;;;2.33;;
40649;SDS011;26342;42.826;23.992;2023-04-03T13:26:27;0.10;;;0.10;;
40649;SDS011;26342;42.826;23.992;2023-04-03T13:29:04;0.03;;;0.03;;
40649;SDS011;26342;42.826;23.992;2023-04-03T13:31:43;0.65;;;0.65;;
40649;SDS011;26342;42.826;23.992;2023-04-03T13:39:05;0.40;;;0.40;;
40649;SDS011;26342;42.826;23.992;2023-04-03T13:41:41;1.30;;;1.20;;
40649;SDS011;26342;42.826;23.992;2023-04-03T13:44:41;1.52;;;0.88;;
40649;SDS011;26342;42.826;23.992;2023-04-03T13:49:36;0.50;;;0.50;;
40649;SDS011;26342;42.826;23.992;2023-04-03T13:52:20;0.60;;;0.60;;
40649;SDS011;26342;42.826;23.992;2023-04-03T13:55:03;0.20;;;0.20;;
40649;SDS011;26342;42.826;23.992;2023-04-03T13:57:53;0.98;;;0.28;;
40649;SDS011;26342;42.826;23.992;2023-04-03T14:00:45;0.50;;;0.30;;
40649;SDS011;26342;42.826;23.992;2023-04-03T14:03:33;0.40;;;0.30;;
40649;SDS011;26342;42.826;23.992;2023-04-03T14:06:12;0.30;;;0.30;;
40649;SDS011;26342;42.826;23.992;2023-04-03T14:08:40;0.88;;;0.88;;
40649;SDS011;26342;42.826;23.992;2023-04-03T14:11:08;2.15;;;1.80;;
40649;SDS011;26342;42.826;23.992;2023-04-03T14:13:39;3.30;;;0.95;;
40649;SDS011;26342;42.826;23.992;2023-04-03T14:16:05;0.20;;;0.20;;
40649;SDS011;26342;42.826;23.992;2023-04-03T14:18:30;0.77;;;0.57;;
40649;SDS011;26342;42.826;23.992;2023-04-03T14:20:56;2.58;;;1.52;;
40649;SDS011;26342;42.826;23.992;2023-04-03T14:23:21;0.63;;;0.32;;
40649;SDS011;26342;42.826;23.992;2023-04-03T14:25:47;1.48;;;1.25;;
40649;SDS011;26342;42.826;23.992;2023-04-03T14:28:14;1.77;;;1.20;;
40649;SDS011;26342;42.826;23.992;2023-04-03T14:30:43;0.32;;;0.32;;
40649;SDS011;26342;42.826;23.992;2023-04-03T14:33:14;0.13;;;0.13;;
40649;SDS011;26342;42.826;23.992;2023-04-03T14:35:42;0.22;;;0.22;;
40649;SDS011;26342;42.826;23.992;2023-04-03T14:40:51;0.33;;;0.33;;
40649;SDS011;26342;42.826;23.992;2023-04-03T14:43:17;0.63;;;0.63;;
40649;SDS011;26342;42.826;23.992;2023-04-03T14:45:43;6.15;;;3.55;;
40649;SDS011;26342;42.826;23.992;2023-04-03T14:48:19;8.18;;;2.60;;
40649;SDS011;26342;42.826;23.992;2023-04-03T14:50:48;6.05;;;2.80;;
40649;SDS011;26342;42.826;23.992;2023-04-03T14:53:15;3.45;;;2.42;;
40649;SDS011;26342;42.826;23.992;2023-04-03T14:55:43;2.47;;;2.28;;
40649;SDS011;26342;42.826;23.992;2023-04-03T14:58:14;3.45;;;2.55;;
40649;SDS011;26342;42.826;23.992;2023-04-03T15:00:40;9.00;;;2.67;;
40649;SDS011;26342;42.826;23.992;2023-04-03T15:03:09;7.47;;;3.15;;
40649;SDS011;26342;42.826;23.992;2023-04-03T15:05:38;8.90;;;3.97;;
40649;SDS011;26342;42.826;23.992;2023-04-03T15:08:03;6.80;;;4.13;;
40649;SDS011;26342;42.826;23.992;2023-04-03T15:10:29;5.72;;;4.25;;
40649;SDS011;26342;42.826;23.992;2023-04-03T15:12:56;4.95;;;3.22;;
40649;SDS011;26342;42.826;23.992;2023-04-03T15:15:23;4.75;;;3.42;;
40649;SDS011;26342;42.826;23.992;2023-04-03T15:17:53;8.27;;;3.97;;
40649;SDS011;26342;42.826;23.992;2023-04-03T15:20:23;4.32;;;2.58;;
40649;SDS011;26342;42.826;23.992;2023-04-03T15:22:51;7.30;;;3.25;;
40649;SDS011;26342;42.826;23.992;2023-04-03T15:25:17;6.13;;;1.90;;
40649;SDS011;26342;42.826;23.992;2023-04-03T15:27:43;2.55;;;1.33;;
40649;SDS011;26342;42.826;23.992;2023-04-03T15:30:11;3.67;;;2.28;;
40649;SDS011;26342;42.826;23.992;2023-04-03T15:32:39;5.35;;;1.48;;
40649;SDS011;26342;42.826;23.992;2023-04-03T15:35:05;3.13;;;1.88;;
40649;SDS011;26342;42.826;23.992;2023-04-03T15:37:31;2.95;;;2.08;;
40649;SDS011;26342;42.826;23.992;2023-04-03T15:39:57;2.92;;;1.75;;
40649;SDS011;26342;42.826;23.992;2023-04-03T15:42:22;3.13;;;0.98;;
40649;SDS011;26342;42.826;23.992;2023-04-03T15:44:47;1.83;;;1.08;;
40649;SDS011;26342;42.826;23.992;2023-04-03T15:47:13;0.63;;;0.52;;
40649;SDS011;26342;42.826;23.992;2023-04-03T15:49:39;3.97;;;1.63;;
40649;SDS011;26342;42.826;23.992;2023-04-03T15:52:04;2.95;;;0.95;;
40649;SDS011;26342;42.826;23.992;2023-04-03T15:54:30;5.05;;;2.30;;
40649;SDS011;26342;42.826;23.992;2023-04-03T15:56:56;1.70;;;0.95;;
40649;SDS011;26342;42.826;23.992;2023-04-03T15:59:22;2.28;;;1.08;;
40649;SDS011;26342;42.826;23.992;2023-04-03T16:01:48;0.60;;;0.60;;
40649;SDS011;26342;42.826;23.992;2023-04-03T16:04:15;1.50;;;1.40;;
40649;SDS011;26342;42.826;23.992;2023-04-03T16:06:41;0.55;;;0.55;;
40649;SDS011;26342;42.826;23.992;2023-04-03T16:09:07;1.65;;;0.68;;
40649;SDS011;26342;42.826;23.992;2023-04-03T16:11:33;0.20;;;0.20;;
40649;SDS011;26342;42.826;23.992;2023-04-03T16:14:02;1.17;;;1.02;;
40649;SDS011;26342;42.826;23.992;2023-04-03T16:16:27;0.20;;;0.20;;
40649;SDS011;26342;42.826;23.992;2023-04-03T16:18:53;0.40;;;0.40;;
40649;SDS011;26342;42.826;23.992;2023-04-03T16:21:20;0.45;;;0.45;;
40649;SDS011;26342;42.826;23.992;2023-04-03T16:23:46;1.17;;;1.08;;
40649;SDS011;26342;42.826;23.992;2023-04-03T16:26:12;9.43;;;2.78;;
40649;SDS011;26342;42.826;23.992;2023-04-03T16:28:38;3.75;;;3.10;;
40649;SDS011;26342;42.826;23.992;2023-04-03T16:31:03;4.22;;;3.13;;
40649;SDS011;26342;42.826;23.992;2023-04-03T16:33:31;3.95;;;3.33;;
40649;SDS011;26342;42.826;23.992;2023-04-03T16:35:56;3.05;;;2.67;;
40649;SDS011;26342;42.826;23.992;2023-04-03T16:38:22;1.67;;;1.58;;
40649;SDS011;26342;42.826;23.992;2023-04-03T16:40:48;0.77;;;0.77;;
40649;SDS011;26342;42.826;23.992;2023-04-03T16:43:14;5.15;;;0.57;;
40649;SDS011;26342;42.826;23.992;2023-04-03T16:45:40;1.67;;;1.58;;
40649;SDS011;26342;42.826;23.992;2023-04-03T16:48:06;1.90;;;1.73;;
40649;SDS011;26342;42.826;23.992;2023-04-03T16:50:31;2.33;;;1.95;;
40649;SDS011;26342;42.826;23.992;2023-04-03T16:52:57;5.65;;;2.20;;
40649;SDS011;26342;42.826;23.992;2023-04-03T16:55:22;3.75;;;2.90;;
40649;SDS011;26342;42.826;23.992;2023-04-03T16:57:48;5.47;;;2.35;;